Historyczne dane pomiarowe

Dodano dane terminowe – wersja testowa.

Dane z okresu 1951-2019

Wersja bazy: 1.34 [2019-03-16, lista zmian], aktualizacja planowana na 2019-04-15

Dane meteo z obszaru Polski uzyskane na podstawie danych udostępnionych przez Instytut Meteorologii i Gospodarki Wodnej – Państwowy Instytut Badawczy.

 

Wybierz Datę:    

       

TemperaturaWilgotnośćWiatrCiśnienieOpadyŚniegCzas trwania zjawisk
 Stacja t tx tn tng RH VA  wxwx mslp ppp RRR   cm mm wxwxwxwxwxwxwx
1983-08-14 12.9 17.4 9.4 8.4 80.8- 4.3 2.7---- 0.2------------
1983-08-13 14.7 20.2 11.8 12.0 85.8- 7.0 5.0---- 1.1------------
1983-08-12 20.4 27.6 13.5 10.5 70.8- 1.7 2.3---- 3.9------------
1983-08-11 21.0 26.8 13.5 10.9 56.0- 2.0 2.7---- 0.0------------
1983-08-10 19.9 25.5 13.0 10.4 67.5- 0.0 1.0---- 0.0------------
1983-08-09 20.8 25.5 15.1 13.5 69.8- 1.3 2.0---- 0.0------------
1983-08-08 20.4 26.6 15.7 14.4 81.3- 1.7 3.0---- 0.3------------
1983-08-07 19.7 26.0 14.5 15.8 82.0- 5.7 3.7---- 22.8------------
1983-08-06 17.7 23.0 10.2 8.9 79.0- 4.3 1.3---- 0.0------------
1983-08-05 14.1 15.8 12.0 12.5 92.0- 8.0 2.0---- 0.0------------
1983-08-04 17.0 24.5 14.0 13.9 96.0- 8.0 2.0---- 16.3------------
1983-08-03 21.6 28.1 12.9 11.2 63.3- 2.7 4.0---- 4.6------------
1983-08-02 21.0 28.4 12.9 8.4 63.8- 1.0 4.0---- 0.0------------
1983-08-01 20.6 27.4 12.5 9.2 63.3- 0.0 2.0---- 0.0------------
1983-07-31 17.6 24.1 9.5 7.8 75.0- 2.3 2.3---- 0.0------------
1983-07-30 16.3 19.2 15.0 13.4 85.5- 7.3 4.3---- 0.1------------
1983-07-29 18.0 23.0 12.9 11.2 80.3- 5.3 3.7---- 0.0------------
1983-07-28 21.4 25.3 18.7 16.8 72.8- 4.7 2.3---- 0.0------------
1983-07-27 21.8 29.5 13.5 12.1 73.8- 0.3 1.0---- 0.0------------
1983-07-26 20.6 28.5 14.4 11.9 81.0- 3.3 4.3---- 0.0------------
1983-07-25 14.9 17.4 9.4 7.5 89.5- 6.7 3.3---- 5.3------------
1983-07-24 15.1 19.8 11.0 9.4 83.3- 4.7 1.3---- 0.0------------
1983-07-23 13.6 20.0 9.6 9.4 88.0- 6.7 3.7---- 1.3------------
1983-07-22 12.8 18.3 8.5 7.9 85.3- 4.0 2.0---- 6.3------------
1983-07-21 12.5 17.2 7.0 4.0 73.0- 3.3 5.7---- 6.5------------
1983-07-20 12.9 20.2 9.6 8.4 87.0- 4.7 0.0---- 9.1------------
1983-07-19 19.5 24.2 18.3 14.5 77.5- 7.7 3.7---- 0.0------------
1983-07-18 20.7 28.7 12.0 7.9 58.8- 1.3 2.7---- 0.1------------
1983-07-17 18.1 23.7 14.0 8.4 66.8- 1.0 1.0---- 0.0------------
1983-07-16 20.4 27.6 13.0 8.4 66.5- 7.3 4.0---- 2.1------------
1983-07-15 19.7 27.0 11.5 9.9 60.3- 2.0 2.3---- 0.0------------
1983-07-14 19.2 23.5 16.4 14.4 80.0- 7.3 6.0---- 0.2------------
1983-07-13 20.5 26.0 12.8 10.1 76.0- 4.0 1.7---- 0.0------------
1983-07-12 20.2 24.3 15.4 13.4 78.8- 5.0 4.0---- 0.0------------
1983-07-11 21.2 28.2 15.5 13.7 73.3- 7.0 5.7---- 2.0------------
1983-07-10 22.3 28.0 12.2 10.9 61.8- 2.7 4.7---- 0.0------------
1983-07-09 21.0 27.6 13.3 10.4 63.0- 2.0 4.0---- 0.0------------
1983-07-08 18.9 24.6 10.2 6.2 68.3- 2.3 3.3---- 0.0------------
1983-07-07 18.2 23.8 11.0 7.5 52.3- 0.0 2.7---- 0.0------------
1983-07-06 18.1 24.0 9.6 7.5 68.8- 0.0 2.3---- 0.0------------
1983-07-05 17.0 23.0 9.8 7.9 74.5- 2.0 2.7---- 0.0------------
1983-07-04 20.0 26.0 15.0 11.9 64.0- 4.7 3.3---- 0.0------------
1983-07-03 17.0 23.4 8.4 4.5 74.5- 3.7 1.3---- 0.0------------
1983-07-02 16.3 21.6 14.0 11.7 90.3- 4.7 3.7---- 0.0------------
1983-07-01 18.5 24.2 11.0 8.4 80.3- 3.0 2.7---- 0.0------------
1983-06-30 16.9 22.6 9.8 7.2 69.8- 0.0 2.7---- 0.0------------
1983-06-29 14.1 19.5 9.5 4.6 73.8- 1.3 1.0---- 0.0------------
1983-06-28 15.3 18.0 13.2 12.1 91.0- 7.3 1.0---- 12.3------------
1983-06-27 17.3 23.2 9.3 6.2 84.0- 8.0 1.7---- 10.4------------
1983-06-26 17.0 23.0 7.2 4.0 69.8- 2.0 1.7---- 0.0------------
1983-06-25 19.5 27.0 10.6 6.7 62.8- 3.3 3.3---- 0.0------------
1983-06-24 18.0 26.4 7.5 3.5 59.8- 0.3 1.3---- 0.0------------
1983-06-23 14.3 21.6 5.5 1.6 62.0- 0.0 2.0---- 0.0------------
1983-06-22 11.8 16.3 5.2 3.7 59.8- 1.7 2.0---- 0.0------------
1983-06-21 15.5 21.0 9.5 7.9 69.5- 1.0 3.3---- 0.0------------
1983-06-20 18.9 23.5 13.0 11.4 68.0- 1.0 3.0---- 0.0------------
1983-06-19 17.2 21.0 13.8 12.9 83.0- 7.3 5.3---- 0.0------------
1983-06-18 13.9 17.5 10.2 8.7 83.3- 8.0 5.3---- 0.0------------
1983-06-17 14.3 19.0 10.5 10.4 75.5- 7.3 3.0---- 0.0------------
1983-06-16 12.3 15.9 10.5 10.4 88.5- 8.0 5.0---- 0.2------------
583.4 ms

 

Źródłem pochodzenia danych jest Instytut Meteorologii i Gospodarki Wodnej – Państwowy Instytut Badawczy. Dane Instytutu Meteorologii i Gospodarki Wodnej – Państwowego Instytutu Badawczego zostały przetworzone.

Dane źródłowe można odnaleźć na stronie https://dane.imgw.pl